To NAV CANADA Home Page Login to a new session Search on AWWS site Feedback and Comments Disclaimer Vers la page française équivalente Tips FAQ What's new on the site To the Forecasts and Observations / NOTAM section To "File a Flight Plan" website Publications and other links Update of the User's profile FIC Telephone Numbers My Weather Data Folder Route Weather Data Regional Weather Data Local Weather Data To the Forecasts and Observations / NOTAM section
Request Generated 06/23/2017 at 13:36:42 UTC . Weather information available at that time is displayed.

METAR/TAF

THUNDER BAY/ON    (show WxCam)

METAR CYQT 231300Z 29009KT 20SM SCT085 17/10 A2954 RMK AC3 SLP006
DENSITY ALT 1500FT=
METAR CYQT 231200Z 26005KT 20SM SCT090 13/09 A2954 RMK AC4 SLP006
DENSITY ALT 1000FT=
METAR CYQT 231100Z 27004KT 20SM SCT120 10/09 A2954 RMK AC4 SLP007
DENSITY ALT 700FT=

TAF CYQT 230738Z 2308/2320 23005KT P6SM FEW100 SCT150
FM230900 25005KT P6SM BKN040
FM231500 29012KT P6SM BKN040 TEMPO 2315/2320 P6SM -SHRA PROB30
2318/2320 VRB15G25KT 2SM TSRA BR BKN040CB
RMK NXT FCST BY 231400Z=
Your time UTC time
Weather data provided by Environment Canada and NAV CANADA